METAR Data
IDs: Format: Raw Decoded Include TAF

Data at: 1241 UTC 15 Jul 2020

KPGV 151235Z AUTO 09006KT 7SM CLR 27/22 A3012 RMK AO2
KPGV 151215Z AUTO 05003KT 10SM CLR 26/22 A3012 RMK AO2
KPGV 151155Z AUTO 00000KT 10SM CLR 25/22 A3012 RMK AO2
KPGV 151135Z AUTO 00000KT 10SM SCT070 23/22 A3011 RMK AO2
KPGV 151115Z AUTO 02004KT 10SM CLR 23/22 A3010 RMK AO2
KPGV 151055Z AUTO 01003KT 10SM CLR 23/22 A3010 RMK AO2
KPGV 151035Z AUTO 00000KT 10SM CLR 22/21 A3009 RMK AO2
KPGV 151015Z AUTO 00000KT 10SM CLR 22/21 A3009 RMK AO2
KPGV 150955Z AUTO 00000KT 10SM SCT070 23/21 A3009 RMK AO2
KPGV 150935Z AUTO 00000KT 10SM SCT070 23/21 A3008 RMK AO2
KPGV 150915Z AUTO 00000KT 10SM CLR 22/21 A3008 RMK AO2
KPGV 150855Z AUTO 00000KT 10SM CLR 22/21 A3008 RMK AO2
KPGV 150835Z AUTO 00000KT 10SM CLR 23/21 A3007 RMK AO2
KPGV 150815Z AUTO 00000KT 10SM CLR 23/21 A3007 RMK AO2
KPGV 150755Z AUTO 15003KT 10SM CLR 23/21 A3006 RMK AO2
KPGV 150735Z AUTO 14003KT 10SM CLR 23/21 A3006 RMK AO2
KPGV 150715Z AUTO 11003KT 10SM CLR 23/21 A3006 RMK AO2
KPGV 150655Z AUTO 00000KT 10SM CLR 23/21 A3006 RMK AO2
KPGV 150635Z AUTO 13003KT 10SM CLR 23/21 A3007 RMK AO2
KPGV 150615Z AUTO 12003KT 10SM CLR 23/21 A3007 RMK AO2
KPGV 150555Z AUTO 00000KT 10SM CLR 23/21 A3008 RMK AO2
KPGV 150535Z AUTO 13003KT 10SM CLR 25/22 A3007 RMK AO2
KPGV 150515Z AUTO 11006KT 10SM CLR 25/22 A3008 RMK AO2
KPGV 150455Z AUTO 11004KT 10SM CLR 25/22 A3007 RMK AO2
KPGV 150435Z AUTO 12004KT 10SM CLR 26/22 A3007 RMK AO2
KPGV 150415Z AUTO 12004KT 10SM CLR 26/22 A3006 RMK AO2
KPGV 150355Z AUTO 09005KT 10SM CLR 27/23 A3007 RMK AO2
KPGV 150335Z AUTO 10006KT 10SM CLR 26/23 A3006 RMK AO2
KPGV 150315Z AUTO 09003KT 7SM CLR 27/23 A3005 RMK AO2
KPGV 150255Z AUTO 10005KT 10SM CLR 27/23 A3005 RMK AO2
KPGV 150235Z AUTO 08004KT 10SM CLR 27/22 A3005 RMK AO2
KPGV 150215Z AUTO 08003KT 7SM CLR 28/22 A3005 RMK AO2
KPGV 150155Z AUTO 08006KT 10SM CLR 28/22 A3004 RMK AO2
KPGV 150135Z AUTO 07006KT 10SM CLR 28/21 A3003 RMK AO2
KPGV 150115Z AUTO 05003KT 10SM SCT070 27/21 A3003 RMK AO2
KPGV 150055Z AUTO 00000KT 10SM SCT070 28/21 A3002 RMK AO2
KPGV 150035Z AUTO 02003KT 10SM CLR 28/21 A3002 RMK AO2
KPGV 150015Z AUTO 00000KT 10SM CLR 30/20 A3002 RMK AO2
KPGV 142355Z AUTO 00000KT 10SM CLR 31/21 A3002 RMK AO2
KPGV 142335Z AUTO 00000KT 10SM CLR 32/21 A3001 RMK AO2
KPGV 142315Z AUTO 00000KT 10SM CLR 33/19 A3000 RMK AO2
KPGV 142255Z AUTO 31004KT 10SM CLR 33/18 A3000 RMK AO2
KPGV 142235Z AUTO 25003KT 10SM CLR 33/18 A2999 RMK AO2
KPGV 142215Z AUTO 00000KT 10SM CLR 34/18 A2999 RMK AO2
KPGV 142155Z AUTO 00000KT 10SM CLR 33/18 A2999 RMK AO2
KPGV 142135Z AUTO 33003KT 10SM SCT070 34/18 A2998 RMK AO2
KPGV 142115Z AUTO 01003KT 10SM CLR 35/18 A2998 RMK AO2
KPGV 142055Z AUTO 34004KT 10SM CLR 35/18 A2998 RMK AO2
KPGV 142035Z AUTO 02003KT 10SM CLR 35/17 A2998 RMK AO2
KPGV 142015Z AUTO 30004KT 10SM CLR 35/17 A2998 RMK AO2
KPGV 141955Z AUTO 00000KT 7SM CLR 33/18 A2998 RMK AO2
KPGV 141935Z AUTO 00000KT 10SM SCT060 33/20 A2998 RMK AO2
KPGV 141915Z AUTO 05004KT 10SM SCT060 34/20 A2998 RMK AO2
KPGV 141855Z AUTO 23003KT 10SM CLR 34/20 A2999 RMK AO2
KPGV 141835Z AUTO 00000KT 10SM CLR 33/20 A3000 RMK AO2
KPGV 141815Z AUTO 35004KT 10SM CLR 33/20 A2999 RMK AO2
KPGV 141755Z AUTO 00000KT 5SM HZ CLR 33/20 A3000 RMK AO2
KPGV 141735Z AUTO 02004KT 10SM CLR 33/20 A3000 RMK AO2
KPGV 141715Z AUTO 00000KT 10SM CLR 33/21 A3000 RMK AO2
KPGV 141655Z AUTO 00000KT 7SM CLR 32/20 A3000 RMK AO2
KPGV 141635Z AUTO 06004KT 10SM CLR 32/20 A3001 RMK AO2
KPGV 141615Z AUTO 36004KT 7SM SCT043 31/21 A3001 RMK AO2
KPGV 141555Z AUTO 36003KT 10SM CLR 31/20 A3001 RMK AO2
KPGV 141535Z AUTO 36003KT 10SM CLR 31/21 A3001 RMK AO2
KPGV 141515Z AUTO 05003KT 10SM CLR 30/22 A3001 RMK AO2
KPGV 141455Z AUTO 33005KT 10SM CLR 30/22 A3001 RMK AO2
KPGV 141435Z AUTO 01005KT 10SM CLR 30/22 A3001 RMK AO2
KPGV 141415Z AUTO 34004KT 10SM CLR 29/22 A3001 RMK AO2
KPGV 141355Z AUTO 01004KT 10SM CLR 28/21 A3000 RMK AO2
KPGV 141335Z AUTO 32004KT 10SM CLR 28/22 A3000 RMK AO2
KPGV 141315Z AUTO 33003KT 7SM CLR 27/22 A2999 RMK AO2
KPGV 141255Z AUTO 36004KT 10SM CLR 27/22 A2999 RMK AO2
KPGV 141235Z AUTO 36004KT 10SM CLR 26/22 A2998 RMK AO2
KPGV 141215Z AUTO 31003KT 10SM CLR 25/22 A2998 RMK AO2
KPGV 141155Z AUTO 29003KT 7SM CLR 24/22 A2998 RMK AO2
KPGV 141135Z AUTO 00000KT 5SM BR CLR 23/21 A2998 RMK AO2
KPGV 141115Z AUTO 00000KT 7SM CLR 22/21 A2997 RMK AO2
KPGV 141055Z AUTO 00000KT 5SM BR CLR 21/20 A2997 RMK AO2
KPGV 141035Z AUTO 00000KT 5SM BR CLR 21/20 A2996 RMK AO2
KPGV 140955Z AUTO 00000KT 7SM CLR 21/20 A2996 RMK AO2
KPGV 140935Z AUTO 00000KT 7SM CLR 21/20 A2995 RMK AO2
KPGV 140915Z AUTO 00000KT 7SM CLR 21/20 A2995 RMK AO2
KPGV 140855Z AUTO 00000KT 7SM CLR 21/20 A2994 RMK AO2
KPGV 140835Z AUTO 00000KT 7SM CLR 21/20 A2994 RMK AO2
KPGV 140815Z AUTO 00000KT 7SM CLR 21/20 A2994 RMK AO2
KPGV 140715Z AUTO 00000KT 10SM CLR 21/20 A2993 RMK AO2
KPGV 140655Z AUTO 00000KT 10SM CLR 21/20 A2993 RMK AO2
KPGV 140635Z AUTO 00000KT 10SM CLR 21/20 A2994 RMK AO2
KPGV 140615Z AUTO 00000KT 10SM CLR 22/20 A2993 RMK AO2
KPGV 140535Z AUTO 00000KT 10SM CLR 21/20 A2994 RMK AO2
KPGV 140515Z AUTO 00000KT 10SM CLR 22/20 A2994 RMK AO2
KPGV 140455Z AUTO 17003KT 10SM CLR 22/21 A2994 RMK AO2
KPGV 140435Z AUTO 16004KT 10SM CLR 22/21 A2994 RMK AO2
KPGV 140415Z AUTO 13004KT 10SM CLR 22/21 A2995 RMK AO2
KPGV 140355Z AUTO 12003KT 7SM CLR 22/21 A2994 RMK AO2
KPGV 140335Z AUTO 12004KT 10SM CLR 22/21 A2994 RMK AO2
KPGV 140315Z AUTO 09004KT 10SM CLR 23/21 A2994 RMK AO2
KPGV 140255Z AUTO 08004KT 10SM CLR 23/21 A2995 RMK AO2
KPGV 140235Z AUTO 00000KT 10SM CLR 23/22 A2994 RMK AO2
KPGV 140215Z AUTO 00000KT 10SM CLR 23/22 A2993 RMK AO2
KPGV 140155Z AUTO 00000KT 10SM CLR 23/22 A2993 RMK AO2
KPGV 140135Z AUTO 24003KT 10SM CLR 23/22 A2992 RMK AO2
KPGV 140115Z AUTO 00000KT 10SM CLR 24/22 A2992 RMK AO2
KPGV 140055Z AUTO 00000KT 7SM CLR 24/22 A2991 RMK AO2